Time;durP1;ratioP1;P1;durP2;ratioP2;P2;SDS_P1;SDS_P2;PMS_P1;PMS_P2;Temp;Humidity;BMP_temperature;BMP_pressure;BME280_temperature;BME280_humidity;BME280_pressure;Samples;Min_cycle;Max_cycle;Signal;HPM_P1;HPM_P2
2023/02/12 00:01:29;;;;;;;27.60;18.17;;;8.10;99.90;;;;;;4990262;28;20062;-89
2023/02/12 00:03:55;;;;;;;29.20;18.55;;;8.10;99.90;;;;;;4975870;28;20046;-88
2023/02/12 00:06:21;;;;;;;34.15;18.45;;;8.10;99.90;;;;;;5002356;28;20030;-89
2023/02/12 00:08:50;;;;;;;31.80;18.38;;;8.10;99.90;;;;;;5004641;28;20018;-89
2023/02/12 00:11:18;;;;;;;30.23;17.83;;;8.10;99.90;;;;;;4997896;28;20030;-89
2023/02/12 00:13:43;;;;;;;29.38;18.52;;;8.10;99.90;;;;;;5006316;28;20466;-89
2023/02/12 00:16:15;;;;;;;29.27;17.52;;;8.10;99.90;;;;;;4986729;28;20075;-89
2023/02/12 00:18:40;;;;;;;30.13;17.83;;;8.10;99.90;;;;;;5002668;28;20021;-89
2023/02/12 00:21:09;;;;;;;30.63;18.77;;;8.00;99.90;;;;;;4999322;28;20033;-88
2023/02/12 00:23:36;;;;;;;35.50;19.70;;;8.00;99.90;;;;;;4995660;28;20041;-89
2023/02/12 00:26:06;;;;;;;24.67;16.60;;;8.00;99.90;;;;;;4980892;28;20050;-90
2023/02/12 00:28:32;;;;;;;30.40;18.35;;;8.00;99.90;;;;;;4990415;28;20057;-89
2023/02/12 00:30:57;;;;;;;30.17;17.58;;;8.00;99.90;;;;;;5010871;28;20029;-89
2023/02/12 00:33:23;;;;;;;29.60;17.38;;;8.00;99.90;;;;;;4995715;28;20030;-90
2023/02/12 00:35:58;;;;;;;32.38;18.75;;;8.00;99.90;;;;;;4982621;28;20121;-89
2023/02/12 00:38:23;;;;;;;30.77;18.15;;;8.00;99.90;;;;;;4990117;28;20056;-89
2023/02/12 00:40:49;;;;;;;28.38;17.52;;;8.00;99.90;;;;;;4998249;28;20029;-89
2023/02/12 00:43:14;;;;;;;32.08;19.10;;;8.00;99.90;;;;;;5014334;28;20030;-89
2023/02/12 00:45:40;;;;;;;29.63;17.58;;;8.00;99.90;;;;;;4985802;28;20027;-89
2023/02/12 00:48:06;;;;;;;29.95;17.77;;;8.00;99.90;;;;;;4978951;28;20038;-89
2023/02/12 00:50:31;;;;;;;30.98;18.85;;;8.00;99.90;;;;;;4979211;28;20030;-88
2023/02/12 00:52:57;;;;;;;28.80;18.48;;;8.00;99.90;;;;;;4997011;28;20504;-89
2023/02/12 00:55:22;;;;;;;32.00;18.02;;;7.90;99.90;;;;;;4998331;28;20025;-89
2023/02/12 00:57:48;;;;;;;31.65;19.35;;;8.00;99.90;;;;;;5012223;28;20025;-89
2023/02/12 01:00:14;;;;;;;31.77;19.27;;;7.90;99.90;;;;;;5013301;28;20107;-89
2023/02/12 01:02:40;;;;;;;33.40;19.40;;;8.00;99.90;;;;;;5010177;28;20061;-90
2023/02/12 01:05:06;;;;;;;28.17;19.33;;;8.00;99.90;;;;;;4996745;28;20497;-89
2023/02/12 01:07:32;;;;;;;30.88;20.05;;;8.00;99.90;;;;;;4997471;28;20069;-89
2023/02/12 01:09:57;;;;;;;29.88;19.05;;;7.90;99.90;;;;;;4988885;28;20096;-88
2023/02/12 01:12:23;;;;;;;30.45;19.08;;;7.90;99.90;;;;;;4980425;28;20437;-89
2023/02/12 01:14:48;;;;;;;29.90;19.63;;;8.00;99.90;;;;;;4997932;28;20355;-89
2023/02/12 01:17:14;;;;;;;33.38;20.00;;;8.00;99.90;;;;;;4997294;28;20687;-89
2023/02/12 01:19:40;;;;;;;32.83;20.63;;;8.00;99.90;;;;;;5001901;28;20564;-89
2023/02/12 01:22:05;;;;;;;30.30;18.70;;;8.00;99.90;;;;;;4983461;28;20511;-89
2023/02/12 01:24:31;;;;;;;33.40;20.30;;;8.00;99.90;;;;;;4994981;28;20030;-89
2023/02/12 01:26:56;;;;;;;31.98;19.98;;;8.00;99.90;;;;;;5015111;28;20046;-89
2023/02/12 01:29:22;;;;;;;29.10;18.85;;;8.00;99.90;;;;;;4986647;28;20405;-89
2023/02/12 01:31:47;;;;;;;29.70;18.67;;;8.00;99.90;;;;;;5012007;28;20026;-89
2023/02/12 01:34:13;;;;;;;29.55;18.48;;;8.00;99.90;;;;;;4992322;28;20537;-89
2023/02/12 01:36:39;;;;;;;30.75;18.50;;;8.00;99.90;;;;;;4985342;28;20054;-89
2023/02/12 01:39:05;;;;;;;29.40;18.77;;;8.00;99.90;;;;;;4989808;28;20030;-89
2023/02/12 01:41:40;;;;;;;31.02;19.38;;;8.00;99.90;;;;;;4993485;28;20052;-89
2023/02/12 01:44:17;;;;;;;36.60;20.45;;;8.00;99.90;;;;;;4993591;28;20062;-89
2023/02/12 01:46:45;;;;;;;38.15;20.48;;;7.90;99.90;;;;;;4990944;28;20042;-89
2023/02/12 01:49:33;;;;;;;31.20;19.75;;;7.90;99.90;;;;;;4988545;28;20030;-89
2023/02/12 01:52:21;;;;;;;35.47;20.05;;;7.90;99.90;;;;;;4986817;28;20407;-89
2023/02/12 01:54:49;;;;;;;33.33;20.10;;;7.90;99.90;;;;;;4985850;28;20498;-88
2023/02/12 01:57:15;;;;;;;36.88;21.85;;;7.90;99.90;;;;;;4989505;28;20101;-90
2023/02/12 01:59:44;;;;;;;28.83;19.10;;;7.90;99.90;;;;;;4984539;28;20114;-89
2023/02/12 02:02:10;;;;;;;31.90;20.65;;;7.90;99.90;;;;;;4993907;28;20018;-89
2023/02/12 02:05:00;;;;;;;38.22;21.48;;;7.90;99.90;;;;;;4984989;28;20496;-89
2023/02/12 02:07:26;;;;;;;34.85;20.55;;;7.90;99.90;;;;;;4981164;28;20038;-89
2023/02/12 02:09:52;;;;;;;30.13;19.63;;;7.90;99.90;;;;;;4976285;28;20085;-89
2023/02/12 02:15:03;;;;;;;36.08;21.13;;;7.90;99.90;;;;;;4999174;28;20096;-90
2023/02/12 02:17:52;;;;;;;36.03;21.30;;;7.90;99.90;;;;;;4974239;28;20022;-89
2023/02/12 02:20:49;;;;;;;34.30;20.92;;;7.90;99.90;;;;;;4992417;28;20027;-90
2023/02/12 02:23:24;;;;;;;32.13;20.10;;;7.80;99.90;;;;;;4990116;28;20026;-90
2023/02/12 02:26:11;;;;;;;34.10;21.15;;;7.80;99.90;;;;;;5002799;28;20120;-88
2023/02/12 02:28:57;;;;;;;38.25;21.55;;;7.80;99.90;;;;;;4992392;28;20435;-89
2023/02/12 02:31:42;;;;;;;34.58;21.33;;;7.80;99.90;;;;;;4983666;28;20030;-89
2023/02/12 02:34:11;;;;;;;35.97;21.85;;;7.80;99.90;;;;;;4987452;28;20059;-90
2023/02/12 02:36:46;;;;;;;35.85;21.98;;;7.80;99.90;;;;;;5005581;28;20494;-88
2023/02/12 02:39:40;;;;;;;37.05;22.58;;;7.80;99.90;;;;;;4992903;28;20040;-89
2023/02/12 02:42:23;;;;;;;36.67;21.38;;;7.80;99.90;;;;;;4992554;28;20027;-89
2023/02/12 02:44:56;;;;;;;34.90;21.65;;;7.80;99.90;;;;;;4992140;28;20034;-89
2023/02/12 02:47:38;;;;;;;35.85;21.55;;;7.80;99.90;;;;;;4992893;28;20043;-90
2023/02/12 02:50:14;;;;;;;38.97;21.70;;;7.80;99.90;;;;;;4987888;28;20034;-89
2023/02/12 02:52:49;;;;;;;33.67;22.23;;;7.80;99.90;;;;;;4992305;28;20057;-89
2023/02/12 02:55:18;;;;;;;35.58;21.80;;;7.70;99.90;;;;;;4992813;28;20041;-89
2023/02/12 02:57:50;;;;;;;35.75;22.15;;;7.80;99.90;;;;;;4992626;28;20026;-89
2023/02/12 03:00:18;;;;;;;40.95;22.95;;;7.70;99.90;;;;;;4992101;28;20363;-89
2023/02/12 03:02:51;;;;;;;34.90;22.13;;;7.70;99.90;;;;;;5008078;28;20034;-89
2023/02/12 03:05:21;;;;;;;;;;;7.70;99.90;;;;;;4993740;28;20031;-90
2023/02/12 03:07:53;;;;;;;37.70;20.33;;;7.70;99.90;;;;;;4991541;28;19955;-88
2023/02/12 03:10:24;;;;;;;36.58;22.65;;;7.70;99.90;;;;;;4992580;28;20026;-90
2023/02/12 03:12:52;;;;;;;37.53;22.38;;;7.60;99.90;;;;;;4992484;28;20035;-89
2023/02/12 03:15:47;;;;;;;38.15;22.40;;;7.60;99.90;;;;;;4992214;28;20478;-89
2023/02/12 03:18:25;;;;;;;36.42;21.92;;;7.60;99.90;;;;;;4961339;28;20077;-89
2023/02/12 03:20:58;;;;;;;34.58;22.63;;;7.60;99.90;;;;;;4979839;28;20041;-89
2023/02/12 03:23:25;;;;;;;;;;;7.60;99.90;;;;;;4992769;28;20466;-89
2023/02/12 03:26:11;;;;;;;35.25;20.55;;;7.60;99.90;;;;;;4992722;28;19922;-89
2023/02/12 03:28:38;;;;;;;34.45;20.55;;;7.60;99.90;;;;;;4989300;28;20018;-88
2023/02/12 03:31:34;;;;;;;33.78;21.83;;;7.60;99.90;;;;;;4985989;28;20018;-89
2023/02/12 03:34:38;;;;;;;35.63;22.40;;;7.60;99.90;;;;;;5005362;28;20034;-88
2023/02/12 03:37:29;;;;;;;37.10;21.83;;;7.60;99.90;;;;;;4984014;28;20046;-90
2023/02/12 03:40:18;;;;;;;31.92;20.10;;;7.60;99.90;;;;;;4978070;28;20502;-89
2023/02/12 03:42:46;;;;;;;30.95;19.60;;;7.60;99.90;;;;;;4987572;28;20022;-89
2023/02/12 03:45:45;;;;;;;29.40;18.98;;;7.60;99.90;;;;;;4996252;28;20045;-89
2023/02/12 03:48:32;;;;;;;32.78;20.38;;;7.60;99.90;;;;;;4999321;28;20122;-89
2023/02/12 03:51:08;;;;;;;26.63;17.65;;;7.60;99.90;;;;;;4983938;28;20030;-88
2023/02/12 03:53:33;;;;;;;32.63;20.35;;;7.60;99.90;;;;;;5012052;28;20026;-90
2023/02/12 03:56:06;;;;;;;32.58;19.27;;;7.60;99.90;;;;;;4996437;28;20037;-90
2023/02/12 03:58:34;;;;;;;33.08;19.83;;;7.60;99.90;;;;;;4992457;28;20486;-90
2023/02/12 04:01:01;;;;;;;29.67;18.80;;;7.60;99.90;;;;;;4995732;28;20041;-90
2023/02/12 04:03:28;;;;;;;34.85;19.13;;;7.60;99.90;;;;;;4992368;28;20030;-89
2023/02/12 04:05:53;;;;;;;27.33;18.13;;;7.60;99.90;;;;;;4988930;28;20041;-89
2023/02/12 04:08:19;;;;;;;27.75;18.35;;;7.60;99.90;;;;;;4992012;28;20038;-89
2023/02/12 04:11:14;;;;;;;29.58;17.65;;;7.60;99.90;;;;;;4994739;28;20088;-90
2023/02/12 04:14:01;;;;;;;27.13;17.60;;;7.60;99.90;;;;;;5007358;28;20074;-90
2023/02/12 04:16:53;;;;;;;28.50;17.40;;;7.60;99.90;;;;;;4982115;28;20022;-90
2023/02/12 04:19:36;;;;;;;26.85;17.45;;;7.60;99.90;;;;;;4985020;28;20054;-89
2023/02/12 04:22:11;;;;;;;26.65;17.30;;;7.60;99.90;;;;;;4992374;28;20627;-89
2023/02/12 04:25:05;;;;;;;26.13;16.77;;;7.70;99.90;;;;;;4981091;28;20033;-90
2023/02/12 04:28:11;;;;;;;29.08;18.02;;;7.70;99.90;;;;;;4977755;28;20046;-89
2023/02/12 04:30:44;;;;;;;26.23;17.63;;;7.70;99.90;;;;;;4973532;28;20109;-89
2023/02/12 04:33:17;;;;;;;25.00;17.15;;;7.70;99.90;;;;;;4993863;28;20056;-89
2023/02/12 04:36:06;;;;;;;28.15;17.08;;;7.70;99.90;;;;;;4988925;28;20050;-89
2023/02/12 04:38:39;;;;;;;27.73;17.50;;;7.70;99.90;;;;;;5010218;28;20507;-89
2023/02/12 04:41:05;;;;;;;;;;;7.70;99.90;;;;;;4997491;28;20034;-89
2023/02/12 04:43:34;;;;;;;26.13;17.55;;;7.70;99.90;;;;;;4995576;28;20425;-89
2023/02/12 04:46:01;;;;;;;27.13;17.23;;;7.60;99.90;;;;;;4997955;28;20034;-89
2023/02/12 04:48:26;;;;;;;26.58;17.92;;;7.60;99.90;;;;;;5014860;28;20033;-89
2023/02/12 04:50:52;;;;;;;26.38;17.67;;;7.60;99.90;;;;;;4994261;28;20036;-89
2023/02/12 04:53:17;;;;;;;26.50;17.13;;;7.70;99.90;;;;;;4987126;28;20021;-88
2023/02/12 04:55:43;;;;;;;26.73;18.48;;;7.70;99.90;;;;;;5011787;28;20362;-89
2023/02/12 04:58:09;;;;;;;30.10;18.27;;;7.70;99.90;;;;;;4997216;28;20442;-89
2023/02/12 05:00:35;;;;;;;28.23;17.98;;;7.70;99.90;;;;;;4993812;28;20061;-89
2023/02/12 05:03:00;;;;;;;27.92;18.42;;;7.70;99.90;;;;;;4995299;28;20550;-89
2023/02/12 05:05:26;;;;;;;28.38;18.13;;;7.70;99.90;;;;;;4997097;28;20026;-88
2023/02/12 05:07:52;;;;;;;33.03;18.48;;;7.70;99.90;;;;;;4993480;28;20107;-89
2023/02/12 05:10:17;;;;;;;30.05;19.15;;;7.70;99.90;;;;;;4998194;28;20037;-89
2023/02/12 05:12:43;;;;;;;26.67;17.08;;;7.80;99.90;;;;;;4997112;28;20026;-89
2023/02/12 05:15:09;;;;;;;30.27;18.63;;;7.80;99.90;;;;;;5003841;28;20022;-89
2023/02/12 05:17:34;;;;;;;31.10;18.67;;;7.80;99.90;;;;;;5006777;28;20080;-88
2023/02/12 05:20:00;;;;;;;29.98;18.88;;;7.80;99.90;;;;;;4995987;28;20109;-89
2023/02/12 05:22:25;;;;;;;28.00;17.90;;;7.80;99.90;;;;;;5013130;28;20030;-89
2023/02/12 05:24:51;;;;;;;29.45;18.38;;;7.80;99.90;;;;;;5013999;28;20037;-89
2023/02/12 05:27:16;;;;;;;28.98;19.15;;;7.80;99.90;;;;;;5014881;28;20048;-89
2023/02/12 05:29:42;;;;;;;29.50;18.83;;;7.80;99.90;;;;;;5008844;28;20113;-90
2023/02/12 05:32:07;;;;;;;30.00;19.75;;;7.80;99.90;;;;;;4995662;28;20040;-89
2023/02/12 05:34:33;;;;;;;26.65;17.77;;;7.80;99.90;;;;;;4997315;28;20085;-89
2023/02/12 05:36:59;;;;;;;26.95;18.08;;;7.80;99.90;;;;;;4997604;28;20030;-89
2023/02/12 05:39:25;;;;;;;27.58;18.80;;;7.80;99.90;;;;;;4997864;28;20121;-89
2023/02/12 05:41:51;;;;;;;30.33;17.88;;;7.80;99.90;;;;;;4996303;28;20045;-89
2023/02/12 05:44:16;;;;;;;28.52;18.23;;;7.80;99.90;;;;;;4997264;28;20013;-89
2023/02/12 05:46:43;;;;;;;28.92;17.98;;;7.80;99.90;;;;;;4997247;28;20044;-88
2023/02/12 05:49:09;;;;;;;29.20;18.75;;;7.70;99.90;;;;;;4996961;28;20482;-89
2023/02/12 05:51:35;;;;;;;28.75;19.00;;;7.70;99.90;;;;;;4996671;28;20026;-89
2023/02/12 05:54:03;;;;;;;28.80;18.90;;;7.80;99.90;;;;;;4997247;28;20048;-90
2023/02/12 05:56:30;;;;;;;30.42;17.75;;;7.70;99.90;;;;;;4997086;28;20117;-89
2023/02/12 05:59:01;;;;;;;27.27;17.75;;;7.70;99.90;;;;;;4993874;28;20029;-89
2023/02/12 06:01:30;;;;;;;29.40;17.92;;;7.70;99.90;;;;;;5014273;28;20179;-89
2023/02/12 06:03:57;;;;;;;26.67;16.95;;;7.70;99.90;;;;;;5004809;28;20037;-89
2023/02/12 06:06:25;;;;;;;25.42;17.23;;;7.70;99.90;;;;;;4994678;28;20035;-89
2023/02/12 06:08:51;;;;;;;26.90;17.30;;;7.70;99.90;;;;;;4996812;28;20139;-88
2023/02/12 06:11:17;;;;;;;24.85;17.60;;;7.70;99.90;;;;;;5013964;28;20052;-88
2023/02/12 06:13:43;;;;;;;30.95;18.70;;;7.60;99.90;;;;;;5007723;28;20073;-87
2023/02/12 06:16:20;;;;;;;26.85;17.65;;;7.70;99.90;;;;;;4996039;28;20085;-88
2023/02/12 06:18:46;;;;;;;30.08;17.13;;;7.70;99.90;;;;;;4997720;28;20393;-88
2023/02/12 06:21:12;;;;;;;25.83;17.50;;;7.60;99.90;;;;;;5012518;28;20033;-88
2023/02/12 06:23:37;;;;;;;27.77;18.23;;;7.70;99.90;;;;;;4996962;28;20029;-88
2023/02/12 06:26:03;;;;;;;27.27;16.95;;;7.70;99.90;;;;;;4996198;28;20489;-88
2023/02/12 06:28:28;;;;;;;28.25;18.17;;;7.70;99.90;;;;;;4996758;28;20029;-89
2023/02/12 06:30:54;;;;;;;28.42;17.65;;;7.70;99.90;;;;;;4994144;28;20485;-88
2023/02/12 06:33:19;;;;;;;31.52;19.67;;;7.70;99.90;;;;;;4993834;28;20498;-88
2023/02/12 06:35:45;;;;;;;28.75;18.77;;;7.70;99.90;;;;;;4992668;28;20042;-88
2023/02/12 06:38:10;;;;;;;34.97;19.23;;;7.70;99.90;;;;;;4977039;28;20062;-88
2023/02/12 06:40:36;;;;;;;30.27;18.88;;;7.70;99.90;;;;;;4993306;28;20439;-88
2023/02/12 06:43:01;;;;;;;33.97;19.80;;;7.60;99.90;;;;;;4989091;28;20035;-88
2023/02/12 06:45:27;;;;;;;30.63;20.48;;;7.60;99.90;;;;;;4992821;28;20026;-89
2023/02/12 06:47:53;;;;;;;29.45;19.23;;;7.60;99.90;;;;;;4993274;28;20401;-89
2023/02/12 06:50:18;;;;;;;30.52;19.45;;;7.70;99.90;;;;;;4992635;28;20033;-88
2023/02/12 06:52:44;;;;;;;30.70;19.83;;;7.60;99.90;;;;;;4992341;28;20022;-88
2023/02/12 06:55:09;;;;;;;31.80;19.25;;;7.60;99.90;;;;;;5007603;28;20650;-89
2023/02/12 06:57:35;;;;;;;29.13;19.42;;;7.60;99.90;;;;;;4985141;28;20035;-90
2023/02/12 07:00:00;;;;;;;27.13;17.65;;;7.60;99.90;;;;;;4993775;28;20031;-89
2023/02/12 07:02:26;;;;;;;30.20;20.13;;;7.60;99.90;;;;;;4989707;28;20390;-89
2023/02/12 07:04:52;;;;;;;32.60;19.92;;;7.60;99.90;;;;;;4991267;28;20098;-90
2023/02/12 07:07:17;;;;;;;31.00;19.92;;;7.50;99.90;;;;;;4992676;28;20041;-89
2023/02/12 07:09:43;;;;;;;34.85;21.05;;;7.50;99.90;;;;;;4994200;28;20030;-89
2023/02/12 07:12:08;;;;;;;31.17;20.80;;;7.50;99.90;;;;;;4992448;28;20411;-89
2023/02/12 07:14:34;;;;;;;32.88;20.25;;;7.50;99.90;;;;;;4989081;28;20425;-89
2023/02/12 07:17:02;;;;;;;34.88;20.17;;;7.50;99.90;;;;;;4993838;28;20034;-89
2023/02/12 07:19:28;;;;;;;31.02;19.65;;;7.50;99.90;;;;;;5002284;28;20429;-89
2023/02/12 07:21:54;;;;;;;31.92;19.98;;;7.50;99.90;;;;;;5025053;28;20173;-89
2023/02/12 07:24:19;;;;;;;29.67;19.70;;;7.50;99.90;;;;;;4984086;28;20046;-89
2023/02/12 07:26:45;;;;;;;32.75;20.58;;;7.60;99.90;;;;;;5024476;28;20027;-89
2023/02/12 07:29:11;;;;;;;32.45;20.98;;;7.60;99.90;;;;;;4997612;28;20089;-89
2023/02/12 07:31:37;;;;;;;31.35;20.33;;;7.60;99.90;;;;;;5003168;28;20027;-89
2023/02/12 07:34:02;;;;;;;35.08;20.98;;;7.60;99.90;;;;;;4996461;28;20528;-90
2023/02/12 07:36:31;;;;;;;30.50;20.23;;;7.60;99.90;;;;;;4995373;28;20053;-90
2023/02/12 07:38:58;;;;;;;36.42;21.52;;;7.60;99.90;;;;;;4996362;28;20029;-91
2023/02/12 07:41:25;;;;;;;31.88;20.50;;;7.60;99.90;;;;;;4996397;28;20041;-89
2023/02/12 07:43:59;;;;;;;38.47;20.67;;;7.60;99.90;;;;;;5006538;28;20045;-89
2023/02/12 07:46:31;;;;;;;38.28;22.60;;;7.60;99.90;;;;;;4999178;28;20039;-88
2023/02/12 07:48:58;;;;;;;35.37;21.73;;;7.70;99.90;;;;;;4986844;28;20023;-89
2023/02/12 07:51:25;;;;;;;34.42;22.45;;;7.70;99.90;;;;;;4984501;28;20291;-87
2023/02/12 07:53:51;;;;;;;34.38;22.02;;;7.70;99.90;;;;;;4988732;28;20027;-88
2023/02/12 07:56:23;;;;;;;31.67;20.95;;;7.80;99.90;;;;;;4995602;28;20045;-88
2023/02/12 07:58:50;;;;;;;;;;;7.80;99.90;;;;;;4994301;28;20093;-88
2023/02/12 08:01:19;;;;;;;35.65;20.83;;;7.80;99.90;;;;;;4995822;28;19909;-89
2023/02/12 08:03:46;;;;;;;34.70;21.42;;;7.70;99.90;;;;;;4992077;28;20391;-89
2023/02/12 08:06:15;;;;;;;38.13;22.58;;;7.80;99.90;;;;;;4989419;28;20035;-89
2023/02/12 08:08:40;;;;;;;35.38;22.35;;;7.80;99.90;;;;;;4978172;28;20049;-89
2023/02/12 08:11:08;;;;;;;38.28;21.90;;;7.80;99.90;;;;;;4996027;28;20478;-88
2023/02/12 08:13:35;;;;;;;35.45;21.45;;;7.90;99.90;;;;;;4988564;28;20026;-88
2023/02/12 08:16:02;;;;;;;35.70;23.30;;;7.90;99.90;;;;;;4995652;28;20053;-88
2023/02/12 08:18:29;;;;;;;33.17;21.42;;;7.90;99.90;;;;;;4980172;28;20061;-88
2023/02/12 08:20:54;;;;;;;35.70;23.00;;;8.00;99.90;;;;;;4976484;28;20023;-88
2023/02/12 08:23:20;;;;;;;36.70;22.85;;;7.90;99.90;;;;;;4992004;28;20125;-89
2023/02/12 08:25:45;;;;;;;37.25;20.92;;;7.90;99.90;;;;;;4993481;28;20502;-88
2023/02/12 08:28:11;;;;;;;36.15;21.67;;;8.00;99.90;;;;;;4996261;28;20026;-88
2023/02/12 08:30:36;;;;;;;39.42;22.85;;;8.00;99.90;;;;;;4995852;28;20544;-87
2023/02/12 08:33:02;;;;;;;34.33;21.85;;;8.10;99.90;;;;;;4992351;28;20058;-89
2023/02/12 08:35:27;;;;;;;37.70;22.80;;;8.10;99.90;;;;;;4993040;28;20054;-88
2023/02/12 08:37:53;;;;;;;34.88;22.63;;;8.10;99.90;;;;;;4995183;28;20038;-89
2023/02/12 08:40:18;;;;;;;35.72;22.70;;;8.20;99.90;;;;;;4992672;28;20022;-88
2023/02/12 08:42:44;;;;;;;37.10;23.15;;;8.20;99.90;;;;;;4995091;28;20037;-89
2023/02/12 08:45:09;;;;;;;38.85;24.75;;;8.20;99.90;;;;;;4991471;28;20027;-88
2023/02/12 08:47:35;;;;;;;40.78;23.73;;;8.30;99.90;;;;;;4992614;28;20410;-89
2023/02/12 08:50:01;;;;;;;37.30;24.08;;;8.30;99.90;;;;;;4977129;28;20027;-88
2023/02/12 08:52:26;;;;;;;35.15;22.98;;;8.30;99.90;;;;;;4995593;28;20030;-88
2023/02/12 08:54:52;;;;;;;37.78;21.98;;;8.40;99.90;;;;;;4994187;28;20126;-88
2023/02/12 08:57:17;;;;;;;39.13;24.42;;;8.40;99.90;;;;;;4994882;28;20022;-89
2023/02/12 08:59:43;;;;;;;39.60;23.05;;;8.40;99.90;;;;;;4994865;28;20470;-88
2023/02/12 09:02:09;;;;;;;36.88;23.20;;;8.50;99.90;;;;;;4994142;28;20506;-88
2023/02/12 09:04:35;;;;;;;34.50;21.27;;;8.50;99.90;;;;;;4990196;28;20026;-89
2023/02/12 09:07:01;;;;;;;35.63;21.77;;;8.60;99.90;;;;;;4994359;28;20053;-88
2023/02/12 09:09:26;;;;;;;35.47;20.15;;;8.60;99.90;;;;;;4994703;28;20019;-88
2023/02/12 09:11:52;;;;;;;32.75;20.75;;;8.60;99.90;;;;;;4991713;28;20034;-88
2023/02/12 09:14:22;;;;;;;30.88;20.25;;;8.70;99.90;;;;;;4978490;28;20023;-88
2023/02/12 09:16:48;;;;;;;30.90;20.02;;;8.70;99.90;;;;;;4982388;28;20480;-88
2023/02/12 09:19:14;;;;;;;32.00;20.45;;;8.70;99.90;;;;;;4994556;28;20031;-88
2023/02/12 09:21:40;;;;;;;33.42;20.20;;;8.80;99.90;;;;;;5011111;28;20612;-88
2023/02/12 09:24:06;;;;;;;31.50;19.52;;;8.80;99.90;;;;;;5008219;28;20062;-88
2023/02/12 09:26:32;;;;;;;31.27;19.98;;;8.90;99.90;;;;;;4987537;28;20042;-88
2023/02/12 09:28:58;;;;;;;36.80;21.20;;;9.00;99.90;;;;;;4981172;28;20034;-89
2023/02/12 09:31:28;;;;;;;32.08;20.63;;;9.00;99.90;;;;;;4991772;28;20031;-89
2023/02/12 09:33:58;;;;;;;34.65;21.00;;;9.00;99.90;;;;;;4980166;28;20501;-88
2023/02/12 09:36:24;;;;;;;34.88;20.98;;;9.10;99.90;;;;;;4987153;28;20047;-89
2023/02/12 09:38:49;;;;;;;36.13;20.70;;;9.10;99.90;;;;;;4991561;28;20023;-89
2023/02/12 09:41:30;;;;;;;35.47;21.45;;;9.10;99.90;;;;;;4993889;28;20018;-90
2023/02/12 09:44:02;;;;;;;31.92;19.08;;;9.10;99.90;;;;;;5002036;28;20085;-90
2023/02/12 09:46:29;;;;;;;32.13;19.13;;;9.20;99.90;;;;;;4993635;28;20125;-89
2023/02/12 09:49:08;;;;;;;31.27;18.90;;;9.20;99.90;;;;;;5010767;28;20133;-88
2023/02/12 09:51:36;;;;;;;31.38;17.92;;;9.30;99.90;;;;;;4992580;28;20096;-88
2023/02/12 09:54:20;;;;;;;31.27;18.27;;;9.30;99.90;;;;;;4990761;28;20077;-89
2023/02/12 09:56:49;;;;;;;30.08;18.02;;;9.30;99.90;;;;;;4974495;28;20051;-89
2023/02/12 09:59:32;;;;;;;29.83;17.83;;;9.30;99.90;;;;;;4993782;28;20018;-87
2023/02/12 10:01:58;;;;;;;36.03;17.70;;;9.40;99.90;;;;;;4988426;28;20034;-88
2023/02/12 10:04:26;;;;;;;25.90;16.45;;;9.40;99.90;;;;;;4994438;28;20030;-89
2023/02/12 10:07:17;;;;;;;26.92;15.60;;;9.40;99.90;;;;;;4993081;28;20406;-88
2023/02/12 10:10:24;;;;;;;26.13;14.50;;;9.50;99.90;;;;;;4993872;28;20113;-88
2023/02/12 10:13:03;;;;;;;25.92;15.27;;;9.50;99.90;;;;;;4941280;28;20491;-88
2023/02/12 10:16:01;;;;;;;24.33;15.27;;;9.60;99.90;;;;;;5003628;28;20053;-89
2023/02/12 10:18:51;;;;;;;24.08;15.02;;;9.60;99.90;;;;;;5007017;28;20069;-89
2023/02/12 10:21:45;;;;;;;25.45;14.98;;;9.70;99.90;;;;;;4978706;28;20031;-89
2023/02/12 10:24:33;;;;;;;24.58;14.68;;;9.70;99.90;;;;;;4975176;28;20026;-88
2023/02/12 10:27:08;;;;;;;27.90;14.93;;;9.80;99.90;;;;;;5010273;28;20061;-89
2023/02/12 10:29:38;;;;;;;24.23;15.13;;;9.80;99.90;;;;;;4993935;28;20363;-88
2023/02/12 10:32:25;;;;;;;25.52;15.32;;;9.80;99.90;;;;;;4993918;28;20041;-88
2023/02/12 10:34:52;;;;;;;27.08;17.35;;;9.80;99.90;;;;;;4988309;28;20038;-88
2023/02/12 10:37:31;;;;;;;29.60;16.80;;;9.90;99.90;;;;;;4993578;28;20057;-88
2023/02/12 10:40:27;;;;;;;26.40;17.13;;;9.90;99.90;;;;;;4988706;28;20025;-89
2023/02/12 10:42:53;;;;;;;28.13;16.10;;;9.90;99.90;;;;;;4989163;28;20041;-88
2023/02/12 10:45:34;;;;;;;26.70;16.98;;;10.00;99.90;;;;;;4996316;28;20026;-88
2023/02/12 10:48:17;;;;;;;27.85;17.42;;;10.00;99.90;;;;;;5004402;28;20413;-89
2023/02/12 10:50:48;;;;;;;30.63;18.23;;;10.00;99.90;;;;;;5002635;28;20382;-88
2023/02/12 10:53:39;;;;;;;26.98;16.92;;;10.10;99.90;;;;;;4996878;28;20030;-88
2023/02/12 10:56:10;;;;;;;29.98;18.38;;;10.20;99.90;;;;;;4987144;28;20030;-88
2023/02/12 10:58:39;;;;;;;27.20;16.70;;;10.20;99.90;;;;;;5011815;28;20062;-89
2023/02/12 11:01:13;;;;;;;29.95;18.40;;;10.20;99.90;;;;;;5013029;28;20037;-90
2023/02/12 11:03:39;;;;;;;29.88;17.92;;;10.30;99.90;;;;;;4995043;28;20026;-89
2023/02/12 11:06:17;;;;;;;28.05;17.80;;;10.30;99.90;;;;;;4991384;28;20037;-88
2023/02/12 11:08:43;;;;;;;27.90;17.55;;;10.30;99.90;;;;;;4993100;28;20030;-88
2023/02/12 11:11:18;;;;;;;30.17;18.52;;;10.30;99.90;;;;;;4992077;28;20034;-88
2023/02/12 11:13:51;;;;;;;28.60;17.55;;;10.30;99.90;;;;;;4994424;28;20128;-88
2023/02/12 11:16:27;;;;;;;26.50;17.52;;;10.30;99.90;;;;;;4993445;28;20477;-89
2023/02/12 11:18:58;;;;;;;29.98;17.05;;;10.30;99.90;;;;;;4976959;28;20026;-88
2023/02/12 11:21:24;;;;;;;29.92;17.60;;;10.30;99.90;;;;;;4987889;28;20063;-88
2023/02/12 11:23:49;;;;;;;30.40;18.08;;;10.40;99.90;;;;;;5004802;28;20570;-88
2023/02/12 11:26:18;;;;;;;28.60;17.92;;;10.40;99.90;;;;;;4976910;28;20054;-88
2023/02/12 11:29:12;;;;;;;30.23;17.35;;;10.30;99.90;;;;;;5006873;28;20034;-88
2023/02/12 11:31:40;;;;;;;28.17;16.80;;;10.30;99.90;;;;;;5005684;28;20022;-88
2023/02/12 11:34:08;;;;;;;28.02;17.17;;;10.10;99.90;;;;;;4996428;28;20429;-88
2023/02/12 11:36:37;;;;;;;29.30;17.08;;;10.10;99.90;;;;;;5011207;28;20045;-88
2023/02/12 11:39:06;;;;;;;32.00;18.20;;;10.00;99.90;;;;;;5011849;28;20088;-88
2023/02/12 11:41:36;;;;;;;31.73;18.58;;;10.00;99.90;;;;;;4992866;28;20026;-87
2023/02/12 11:44:19;;;;;;;28.27;16.02;;;10.00;99.90;;;;;;4996274;28;20525;-88
2023/02/12 11:46:52;;;;;;;31.15;18.15;;;9.90;99.90;;;;;;4995736;28;20498;-88
2023/02/12 11:49:23;;;;;;;28.42;17.92;;;9.90;99.90;;;;;;5011891;28;20026;-88
2023/02/12 11:51:49;;;;;;;32.47;18.80;;;10.00;99.90;;;;;;4994457;28;20022;-88
2023/02/12 11:54:21;;;;;;;30.15;18.58;;;10.00;99.90;;;;;;4995027;28;20022;-88
2023/02/12 11:56:48;;;;;;;30.40;18.88;;;10.10;99.90;;;;;;4994915;28;20045;-89
2023/02/12 11:59:37;;;;;;;30.00;18.48;;;10.10;99.90;;;;;;5012911;28;20030;-89
2023/02/12 12:02:29;;;;;;;30.40;18.63;;;10.00;99.90;;;;;;4996583;28;20064;-88
2023/02/12 12:05:08;;;;;;;30.83;18.90;;;10.00;99.90;;;;;;4987926;28;20042;-89
2023/02/12 12:07:37;;;;;;;30.02;18.50;;;10.00;99.90;;;;;;4999584;28;20034;-88
2023/02/12 12:10:30;;;;;;;28.42;17.67;;;10.00;99.90;;;;;;5016069;28;20371;-88
2023/02/12 12:13:00;;;;;;;32.42;18.27;;;9.90;99.90;;;;;;5007641;28;20029;-89
2023/02/12 12:21:41;;;;;;;33.80;19.23;;;9.90;99.90;;;;;;5017819;28;20049;-88
2023/02/12 12:24:36;;;;;;;29.40;17.50;;;10.00;99.90;;;;;;5016363;28;20054;-88
2023/02/12 12:30:35;;;;;;;28.90;16.70;;;10.10;99.90;;;;;;4997534;28;20084;-88
2023/02/12 12:33:14;;;;;;;29.75;17.45;;;10.00;99.90;;;;;;4990040;28;20026;-88
2023/02/12 12:35:53;;;;;;;27.13;16.58;;;9.90;99.90;;;;;;5000710;28;20038;-88
2023/02/12 12:39:07;;;;;;;27.90;18.05;;;10.00;99.90;;;;;;5019474;28;20034;-88
2023/02/12 12:41:48;;;;;;;25.25;16.23;;;10.00;99.90;;;;;;4993236;28;20498;-88
2023/02/12 12:44:51;;;;;;;25.25;16.02;;;10.00;99.90;;;;;;4998840;28;20405;-88
2023/02/12 12:47:32;;;;;;;28.45;17.08;;;10.10;99.90;;;;;;4998443;28;20049;-88
2023/02/12 12:50:04;;;;;;;28.08;16.98;;;10.10;99.90;;;;;;4997744;28;20034;-88
2023/02/12 12:52:44;;;;;;;25.93;16.73;;;10.10;99.90;;;;;;5015025;28;20053;-88
2023/02/12 12:55:18;;;;;;;23.38;15.43;;;10.10;99.90;;;;;;4998408;28;20280;-88
2023/02/12 12:57:58;;;;;;;29.05;15.60;;;10.10;99.90;;;;;;4998566;28;20079;-88
2023/02/12 13:00:39;;;;;;;25.45;16.10;;;10.20;99.90;;;;;;4998434;28;20050;-88
2023/02/12 13:03:30;;;;;;;22.77;14.88;;;10.20;99.90;;;;;;5014453;28;20052;-88
2023/02/12 13:06:26;;;;;;;23.85;15.95;;;10.10;99.90;;;;;;4982682;28;20117;-89
2023/02/12 13:09:07;;;;;;;22.30;15.18;;;10.10;99.90;;;;;;4995014;28;20502;-88
2023/02/12 13:11:53;;;;;;;26.65;15.77;;;10.00;99.90;;;;;;5008539;28;20058;-88